sensor_id;sensor_type;location;lat;lon;timestamp;temperature;humidity
68844;DHT22;55850;51.244;6.824;2022-10-16T00:03:23;14.33;87.60
68844;DHT22;55850;51.244;6.824;2022-10-16T00:08:32;14.40;86.99
68844;DHT22;55850;51.244;6.824;2022-10-16T00:13:41;14.37;87.07
68844;DHT22;55850;51.244;6.824;2022-10-16T00:18:47;14.35;87.14
68844;DHT22;55850;51.244;6.824;2022-10-16T00:23:57;14.37;86.84
68844;DHT22;55850;51.244;6.824;2022-10-16T00:29:07;14.45;86.77
68844;DHT22;55850;51.244;6.824;2022-10-16T00:34:13;14.48;86.53
68844;DHT22;55850;51.244;6.824;2022-10-16T00:39:18;14.41;86.59
68844;DHT22;55850;51.244;6.824;2022-10-16T00:44:46;14.49;86.36
68844;DHT22;55850;51.244;6.824;2022-10-16T00:49:56;14.49;86.36
68844;DHT22;55850;51.244;6.824;2022-10-16T00:55:05;14.40;86.50
68844;DHT22;55850;51.244;6.824;2022-10-16T01:00:17;14.35;86.55
68844;DHT22;55850;51.244;6.824;2022-10-16T01:05:24;14.38;86.39
68844;DHT22;55850;51.244;6.824;2022-10-16T01:10:35;14.14;87.05
68844;DHT22;55850;51.244;6.824;2022-10-16T01:15:47;14.23;86.89
68844;DHT22;55850;51.244;6.824;2022-10-16T01:20:59;14.24;87.05
68844;DHT22;55850;51.244;6.824;2022-10-16T01:26:20;14.20;86.95
68844;DHT22;55850;51.244;6.824;2022-10-16T01:31:33;14.23;86.96
68844;DHT22;55850;51.244;6.824;2022-10-16T01:36:41;14.14;86.93
68844;DHT22;55850;51.244;6.824;2022-10-16T01:41:55;14.30;86.69
68844;DHT22;55850;51.244;6.824;2022-10-16T01:47:04;14.12;87.24
68844;DHT22;55850;51.244;6.824;2022-10-16T01:52:13;14.17;87.12
68844;DHT22;55850;51.244;6.824;2022-10-16T01:57:21;14.12;87.35
68844;DHT22;55850;51.244;6.824;2022-10-16T02:02:32;14.09;87.54
68844;DHT22;55850;51.244;6.824;2022-10-16T02:07:38;14.18;87.24
68844;DHT22;55850;51.244;6.824;2022-10-16T02:12:49;13.99;87.60
68844;DHT22;55850;51.244;6.824;2022-10-16T02:17:58;14.04;87.76
68844;DHT22;55850;51.244;6.824;2022-10-16T02:23:04;14.14;87.31
68844;DHT22;55850;51.244;6.824;2022-10-16T02:28:16;14.09;87.61
68844;DHT22;55850;51.244;6.824;2022-10-16T02:33:27;14.14;87.50
68844;DHT22;55850;51.244;6.824;2022-10-16T02:38:34;14.09;87.59
68844;DHT22;55850;51.244;6.824;2022-10-16T02:43:40;14.30;87.13
68844;DHT22;55850;51.244;6.824;2022-10-16T02:48:48;14.23;87.11
68844;DHT22;55850;51.244;6.824;2022-10-16T02:53:54;14.25;86.95
68844;DHT22;55850;51.244;6.824;2022-10-16T02:58:59;14.27;86.94
68844;DHT22;55850;51.244;6.824;2022-10-16T03:04:07;14.33;86.92
68844;DHT22;55850;51.244;6.824;2022-10-16T03:09:13;14.17;87.00
68844;DHT22;55850;51.244;6.824;2022-10-16T03:14:19;14.16;86.83
68844;DHT22;55850;51.244;6.824;2022-10-16T03:19:27;14.18;86.34
68844;DHT22;55850;51.244;6.824;2022-10-16T03:24:32;14.28;86.41
68844;DHT22;55850;51.244;6.824;2022-10-16T03:29:37;14.27;86.28
68844;DHT22;55850;51.244;6.824;2022-10-16T03:34:45;14.23;86.33
68844;DHT22;55850;51.244;6.824;2022-10-16T03:39:51;14.25;86.09
68844;DHT22;55850;51.244;6.824;2022-10-16T03:44:57;14.21;86.23
68844;DHT22;55850;51.244;6.824;2022-10-16T03:50:06;14.17;86.55
68844;DHT22;55850;51.244;6.824;2022-10-16T03:55:12;14.17;86.24
68844;DHT22;55850;51.244;6.824;2022-10-16T04:00:18;14.12;86.21
68844;DHT22;55850;51.244;6.824;2022-10-16T04:05:26;13.90;86.39
68844;DHT22;55850;51.244;6.824;2022-10-16T04:10:32;13.90;86.07
68844;DHT22;55850;51.244;6.824;2022-10-16T04:15:38;13.97;86.07
68844;DHT22;55850;51.244;6.824;2022-10-16T04:20:46;13.94;86.30
68844;DHT22;55850;51.244;6.824;2022-10-16T04:25:52;13.83;85.97
68844;DHT22;55850;51.244;6.824;2022-10-16T04:30:57;13.89;85.99
68844;DHT22;55850;51.244;6.824;2022-10-16T04:36:06;13.84;86.13
68844;DHT22;55850;51.244;6.824;2022-10-16T04:41:11;13.87;86.11
68844;DHT22;55850;51.244;6.824;2022-10-16T04:46:16;13.86;85.78
68844;DHT22;55850;51.244;6.824;2022-10-16T04:51:25;13.94;85.65
68844;DHT22;55850;51.244;6.824;2022-10-16T04:56:31;13.90;85.76
68844;DHT22;55850;51.244;6.824;2022-10-16T05:01:42;13.90;85.79
68844;DHT22;55850;51.244;6.824;2022-10-16T05:06:51;13.83;85.89
68844;DHT22;55850;51.244;6.824;2022-10-16T05:11:56;13.75;86.17
68844;DHT22;55850;51.244;6.824;2022-10-16T05:17:02;13.80;85.99
68844;DHT22;55850;51.244;6.824;2022-10-16T05:22:10;13.82;85.93
68844;DHT22;55850;51.244;6.824;2022-10-16T05:27:15;13.80;86.07
68844;DHT22;55850;51.244;6.824;2022-10-16T05:32:23;13.83;86.07
68844;DHT22;55850;51.244;6.824;2022-10-16T05:37:32;13.90;86.06
68844;DHT22;55850;51.244;6.824;2022-10-16T05:42:37;13.86;85.93
68844;DHT22;55850;51.244;6.824;2022-10-16T05:47:43;13.84;86.05
68844;DHT22;55850;51.244;6.824;2022-10-16T05:52:52;13.82;86.12
68844;DHT22;55850;51.244;6.824;2022-10-16T05:57:57;13.82;86.36
68844;DHT22;55850;51.244;6.824;2022-10-16T06:03:03;13.76;86.41
68844;DHT22;55850;51.244;6.824;2022-10-16T06:08:11;13.84;86.32
68844;DHT22;55850;51.244;6.824;2022-10-16T06:13:17;13.94;86.06
68844;DHT22;55850;51.244;6.824;2022-10-16T06:18:22;13.83;86.40
68844;DHT22;55850;51.244;6.824;2022-10-16T06:23:31;13.94;86.30
68844;DHT22;55850;51.244;6.824;2022-10-16T06:28:37;14.02;86.09
68844;DHT22;55850;51.244;6.824;2022-10-16T06:33:42;13.99;86.21
68844;DHT22;55850;51.244;6.824;2022-10-16T06:38:52;14.09;86.11
68844;DHT22;55850;51.244;6.824;2022-10-16T06:43:57;14.07;86.32
68844;DHT22;55850;51.244;6.824;2022-10-16T06:49:03;14.38;85.78
68844;DHT22;55850;51.244;6.824;2022-10-16T06:54:11;14.51;85.57
68844;DHT22;55850;51.244;6.824;2022-10-16T06:59:17;14.85;85.06
68844;DHT22;55850;51.244;6.824;2022-10-16T07:04:22;15.06;84.25
68844;DHT22;55850;51.244;6.824;2022-10-16T07:09:30;14.96;84.66
68844;DHT22;55850;51.244;6.824;2022-10-16T07:14:36;14.93;84.72
68844;DHT22;55850;51.244;6.824;2022-10-16T07:19:42;14.88;84.94
68844;DHT22;55850;51.244;6.824;2022-10-16T07:24:50;14.86;84.97
68844;DHT22;55850;51.244;6.824;2022-10-16T07:29:57;15.09;84.63
68844;DHT22;55850;51.244;6.824;2022-10-16T07:35:08;14.92;84.75
68844;DHT22;55850;51.244;6.824;2022-10-16T07:40:16;14.99;84.76
68844;DHT22;55850;51.244;6.824;2022-10-16T07:45:21;15.10;84.47
68844;DHT22;55850;51.244;6.824;2022-10-16T07:50:27;15.44;83.70
68844;DHT22;55850;51.244;6.824;2022-10-16T07:55:35;15.90;83.01
68844;DHT22;55850;51.244;6.824;2022-10-16T08:00:40;16.09;82.62
68844;DHT22;55850;51.244;6.824;2022-10-16T08:05:46;16.19;81.81
68844;DHT22;55850;51.244;6.824;2022-10-16T08:10:54;16.34;81.72
68844;DHT22;55850;51.244;6.824;2022-10-16T08:16:00;16.52;80.33
68844;DHT22;55850;51.244;6.824;2022-10-16T08:21:21;16.63;80.68
68844;DHT22;55850;51.244;6.824;2022-10-16T08:26:29;16.84;79.70
68844;DHT22;55850;51.244;6.824;2022-10-16T08:31:34;16.71;80.20
68844;DHT22;55850;51.244;6.824;2022-10-16T08:36:40;16.81;79.63
68844;DHT22;55850;51.244;6.824;2022-10-16T08:42:07;17.12;79.31
68844;DHT22;55850;51.244;6.824;2022-10-16T08:47:19;17.04;78.41
68844;DHT22;55850;51.244;6.824;2022-10-16T08:52:29;17.27;78.62
68844;DHT22;55850;51.244;6.824;2022-10-16T08:57:39;17.29;78.96
68844;DHT22;55850;51.244;6.824;2022-10-16T09:02:52;17.58;78.10
68844;DHT22;55850;51.244;6.824;2022-10-16T09:08:08;17.46;77.98
68844;DHT22;55850;51.244;6.824;2022-10-16T09:13:23;17.52;77.45
68844;DHT22;55850;51.244;6.824;2022-10-16T09:18:35;17.87;75.77
68844;DHT22;55850;51.244;6.824;2022-10-16T09:23:43;17.97;74.83
68844;DHT22;55850;51.244;6.824;2022-10-16T09:28:52;18.18;74.15
68844;DHT22;55850;51.244;6.824;2022-10-16T09:34:00;18.34;73.55
68844;DHT22;55850;51.244;6.824;2022-10-16T09:39:10;18.44;72.66
68844;DHT22;55850;51.244;6.824;2022-10-16T09:44:23;18.57;72.07
68844;DHT22;55850;51.244;6.824;2022-10-16T09:49:30;18.79;71.02
68844;DHT22;55850;51.244;6.824;2022-10-16T09:54:37;19.15;70.36
68844;DHT22;55850;51.244;6.824;2022-10-16T09:59:49;19.54;69.61
68844;DHT22;55850;51.244;6.824;2022-10-16T10:04:55;19.91;68.93
68844;DHT22;55850;51.244;6.824;2022-10-16T10:10:03;19.96;68.36
68844;DHT22;55850;51.244;6.824;2022-10-16T10:15:13;20.05;67.77
68844;DHT22;55850;51.244;6.824;2022-10-16T10:20:25;19.89;68.92
68844;DHT22;55850;51.244;6.824;2022-10-16T10:25:49;19.51;68.40
68844;DHT22;55850;51.244;6.824;2022-10-16T10:31:03;19.15;68.18
68844;DHT22;55850;51.244;6.824;2022-10-16T10:36:21;19.13;68.78
68844;DHT22;55850;51.244;6.824;2022-10-16T10:41:54;19.79;67.36
68844;DHT22;55850;51.244;6.824;2022-10-16T10:47:13;19.36;69.96
68844;DHT22;55850;51.244;6.824;2022-10-16T10:52:41;19.73;67.60
68844;DHT22;55850;51.244;6.824;2022-10-16T10:57:59;19.54;68.12
68844;DHT22;55850;51.244;6.824;2022-10-16T11:03:19;19.23;68.96
68844;DHT22;55850;51.244;6.824;2022-10-16T11:08:35;19.27;69.37
68844;DHT22;55850;51.244;6.824;2022-10-16T11:13:47;19.20;69.84
68844;DHT22;55850;51.244;6.824;2022-10-16T11:19:04;19.47;69.22
68844;DHT22;55850;51.244;6.824;2022-10-16T11:24:19;19.68;68.62
68844;DHT22;55850;51.244;6.824;2022-10-16T11:29:29;19.68;68.38
68844;DHT22;55850;51.244;6.824;2022-10-16T11:34:44;19.23;66.44
68844;DHT22;55850;51.244;6.824;2022-10-16T11:39:50;19.19;67.16
68844;DHT22;55850;51.244;6.824;2022-10-16T11:45:03;19.31;67.64
68844;DHT22;55850;51.244;6.824;2022-10-16T11:50:21;19.28;67.12
68844;DHT22;55850;51.244;6.824;2022-10-16T11:55:32;19.24;67.55
68844;DHT22;55850;51.244;6.824;2022-10-16T12:00:50;18.86;67.14
68844;DHT22;55850;51.244;6.824;2022-10-16T12:06:11;19.13;68.18
68844;DHT22;55850;51.244;6.824;2022-10-16T12:11:31;19.05;66.76
68844;DHT22;55850;51.244;6.824;2022-10-16T12:16:38;19.17;66.50
68844;DHT22;55850;51.244;6.824;2022-10-16T12:21:46;19.30;65.72
68844;DHT22;55850;51.244;6.824;2022-10-16T12:26:52;19.24;65.95
68844;DHT22;55850;51.244;6.824;2022-10-16T12:31:58;19.34;65.75
68844;DHT22;55850;51.244;6.824;2022-10-16T12:37:14;19.28;65.98
68844;DHT22;55850;51.244;6.824;2022-10-16T12:42:32;19.36;65.65
68844;DHT22;55850;51.244;6.824;2022-10-16T12:47:48;19.49;65.60
68844;DHT22;55850;51.244;6.824;2022-10-16T12:52:57;19.46;65.65
68844;DHT22;55850;51.244;6.824;2022-10-16T12:58:20;19.50;66.20
68844;DHT22;55850;51.244;6.824;2022-10-16T13:03:53;19.36;66.99
68844;DHT22;55850;51.244;6.824;2022-10-16T13:09:20;19.33;65.95
68844;DHT22;55850;51.244;6.824;2022-10-16T13:14:41;19.26;66.94
68844;DHT22;55850;51.244;6.824;2022-10-16T13:19:58;19.50;65.80
68844;DHT22;55850;51.244;6.824;2022-10-16T13:25:20;19.67;66.79
68844;DHT22;55850;51.244;6.824;2022-10-16T13:30:29;19.51;66.24
68844;DHT22;55850;51.244;6.824;2022-10-16T13:35:35;19.55;66.20
68844;DHT22;55850;51.244;6.824;2022-10-16T13:40:52;19.47;64.98
68844;DHT22;55850;51.244;6.824;2022-10-16T13:46:00;19.57;64.27
68844;DHT22;55850;51.244;6.824;2022-10-16T13:51:12;19.50;64.89
68844;DHT22;55850;51.244;6.824;2022-10-16T13:56:21;19.60;65.39
68844;DHT22;55850;51.244;6.824;2022-10-16T14:01:28;19.75;65.44
68844;DHT22;55850;51.244;6.824;2022-10-16T14:06:36;19.67;64.98
68844;DHT22;55850;51.244;6.824;2022-10-16T14:11:49;19.38;65.13
68844;DHT22;55850;51.244;6.824;2022-10-16T14:16:56;19.36;66.01
68844;DHT22;55850;51.244;6.824;2022-10-16T14:22:02;19.33;66.46
68844;DHT22;55850;51.244;6.824;2022-10-16T14:27:28;19.38;66.38
68844;DHT22;55850;51.244;6.824;2022-10-16T14:32:34;19.57;66.56
68844;DHT22;55850;51.244;6.824;2022-10-16T14:37:39;19.26;67.90
68844;DHT22;55850;51.244;6.824;2022-10-16T14:42:47;19.27;67.81
68844;DHT22;55850;51.244;6.824;2022-10-16T14:47:55;19.22;67.44
68844;DHT22;55850;51.244;6.824;2022-10-16T14:53:01;19.16;67.50
68844;DHT22;55850;51.244;6.824;2022-10-16T14:58:13;19.06;67.94
68844;DHT22;55850;51.244;6.824;2022-10-16T15:03:20;19.07;68.34
68844;DHT22;55850;51.244;6.824;2022-10-16T15:08:26;19.09;72.01
68844;DHT22;55850;51.244;6.824;2022-10-16T15:13:34;18.89;71.57
68844;DHT22;55850;51.244;6.824;2022-10-16T15:18:39;18.99;73.62
68844;DHT22;55850;51.244;6.824;2022-10-16T15:23:45;18.82;74.94
68844;DHT22;55850;51.244;6.824;2022-10-16T15:28:54;18.86;74.53
68844;DHT22;55850;51.244;6.824;2022-10-16T15:34:00;18.85;75.77
68844;DHT22;55850;51.244;6.824;2022-10-16T15:39:12;18.55;76.62
68844;DHT22;55850;51.244;6.824;2022-10-16T15:44:21;18.43;77.18
68844;DHT22;55850;51.244;6.824;2022-10-16T15:49:31;18.33;77.30
68844;DHT22;55850;51.244;6.824;2022-10-16T15:54:37;18.57;76.29
68844;DHT22;55850;51.244;6.824;2022-10-16T15:59:46;18.36;77.98
68844;DHT22;55850;51.244;6.824;2022-10-16T16:04:51;18.16;78.27
68844;DHT22;55850;51.244;6.824;2022-10-16T16:09:57;18.10;78.96
68844;DHT22;55850;51.244;6.824;2022-10-16T16:15:07;18.10;76.82
68844;DHT22;55850;51.244;6.824;2022-10-16T16:20:13;18.07;76.84
68844;DHT22;55850;51.244;6.824;2022-10-16T16:25:19;18.16;76.93
68844;DHT22;55850;51.244;6.824;2022-10-16T16:30:27;18.03;76.82
68844;DHT22;55850;51.244;6.824;2022-10-16T16:35:33;18.03;75.91
68844;DHT22;55850;51.244;6.824;2022-10-16T16:40:39;17.94;76.30
68844;DHT22;55850;51.244;6.824;2022-10-16T16:45:47;17.90;76.39
68844;DHT22;55850;51.244;6.824;2022-10-16T16:50:53;17.94;75.90
68844;DHT22;55850;51.244;6.824;2022-10-16T16:56:01;17.86;76.81
68844;DHT22;55850;51.244;6.824;2022-10-16T17:01:09;18.03;76.22
68844;DHT22;55850;51.244;6.824;2022-10-16T17:06:25;17.97;76.62
68844;DHT22;55850;51.244;6.824;2022-10-16T17:11:33;17.80;77.51
68844;DHT22;55850;51.244;6.824;2022-10-16T17:16:41;17.82;77.85
68844;DHT22;55850;51.244;6.824;2022-10-16T17:21:48;17.86;78.08
68844;DHT22;55850;51.244;6.824;2022-10-16T17:26:55;17.76;78.77
68844;DHT22;55850;51.244;6.824;2022-10-16T17:32:04;17.76;78.99
68844;DHT22;55850;51.244;6.824;2022-10-16T17:37:09;17.75;79.20
68844;DHT22;55850;51.244;6.824;2022-10-16T17:42:19;17.69;79.46
68844;DHT22;55850;51.244;6.824;2022-10-16T17:47:27;17.59;80.02
68844;DHT22;55850;51.244;6.824;2022-10-16T17:52:33;17.69;79.91
68844;DHT22;55850;51.244;6.824;2022-10-16T17:57:39;17.63;80.31
68844;DHT22;55850;51.244;6.824;2022-10-16T18:02:50;17.58;80.81
68844;DHT22;55850;51.244;6.824;2022-10-16T18:07:55;17.63;80.82
68844;DHT22;55850;51.244;6.824;2022-10-16T18:13:01;17.62;81.16
68844;DHT22;55850;51.244;6.824;2022-10-16T18:18:09;17.58;81.71
68844;DHT22;55850;51.244;6.824;2022-10-16T18:23:14;17.59;82.05
68844;DHT22;55850;51.244;6.824;2022-10-16T18:28:20;17.58;82.22
68844;DHT22;55850;51.244;6.824;2022-10-16T18:33:30;17.63;82.05
68844;DHT22;55850;51.244;6.824;2022-10-16T18:38:36;17.43;82.83
68844;DHT22;55850;51.244;6.824;2022-10-16T18:43:43;17.61;82.59
68844;DHT22;55850;51.244;6.824;2022-10-16T18:48:52;17.48;83.06
68844;DHT22;55850;51.244;6.824;2022-10-16T18:53:59;17.40;83.89
68844;DHT22;55850;51.244;6.824;2022-10-16T18:59:06;17.40;84.17
68844;DHT22;55850;51.244;6.824;2022-10-16T19:04:16;17.38;84.79
68844;DHT22;55850;51.244;6.824;2022-10-16T19:09:23;17.48;84.94
68844;DHT22;55850;51.244;6.824;2022-10-16T19:14:29;17.36;85.76
68844;DHT22;55850;51.244;6.824;2022-10-16T19:19:38;17.32;86.41
68844;DHT22;55850;51.244;6.824;2022-10-16T19:24:44;17.19;86.72
68844;DHT22;55850;51.244;6.824;2022-10-16T19:29:50;17.12;87.25
68844;DHT22;55850;51.244;6.824;2022-10-16T19:34:58;17.14;87.30
68844;DHT22;55850;51.244;6.824;2022-10-16T19:40:05;17.18;86.90
68844;DHT22;55850;51.244;6.824;2022-10-16T19:45:14;16.98;87.77
68844;DHT22;55850;51.244;6.824;2022-10-16T19:50:22;17.00;87.44
68844;DHT22;55850;51.244;6.824;2022-10-16T19:55:29;16.97;87.47
68844;DHT22;55850;51.244;6.824;2022-10-16T20:00:35;16.97;87.51
68844;DHT22;55850;51.244;6.824;2022-10-16T20:05:51;16.97;87.36
68844;DHT22;55850;51.244;6.824;2022-10-16T20:10:58;16.85;87.29
68844;DHT22;55850;51.244;6.824;2022-10-16T20:16:06;16.95;86.91
68844;DHT22;55850;51.244;6.824;2022-10-16T20:21:17;16.81;87.13
68844;DHT22;55850;51.244;6.824;2022-10-16T20:26:24;16.88;86.91
68844;DHT22;55850;51.244;6.824;2022-10-16T20:31:31;16.85;86.52
68844;DHT22;55850;51.244;6.824;2022-10-16T20:36:40;16.73;86.90
68844;DHT22;55850;51.244;6.824;2022-10-16T20:41:48;16.80;86.77
68844;DHT22;55850;51.244;6.824;2022-10-16T20:46:54;16.79;86.85
68844;DHT22;55850;51.244;6.824;2022-10-16T20:52:03;16.60;87.61
68844;DHT22;55850;51.244;6.824;2022-10-16T20:57:09;16.76;87.05
68844;DHT22;55850;51.244;6.824;2022-10-16T21:02:16;16.67;87.28
68844;DHT22;55850;51.244;6.824;2022-10-16T21:07:25;16.66;87.40
68844;DHT22;55850;51.244;6.824;2022-10-16T21:12:31;16.66;87.25
68844;DHT22;55850;51.244;6.824;2022-10-16T21:17:37;16.74;86.79
68844;DHT22;55850;51.244;6.824;2022-10-16T21:22:45;16.81;86.59
68844;DHT22;55850;51.244;6.824;2022-10-16T21:27:51;16.74;86.79
68844;DHT22;55850;51.244;6.824;2022-10-16T21:32:56;16.64;87.07
68844;DHT22;55850;51.244;6.824;2022-10-16T21:38:04;16.70;86.95
68844;DHT22;55850;51.244;6.824;2022-10-16T21:43:10;16.71;86.91
68844;DHT22;55850;51.244;6.824;2022-10-16T21:48:15;16.63;87.25
68844;DHT22;55850;51.244;6.824;2022-10-16T21:53:23;16.60;87.49
68844;DHT22;55850;51.244;6.824;2022-10-16T21:58:30;16.64;87.63
68844;DHT22;55850;51.244;6.824;2022-10-16T22:03:35;16.63;87.54
68844;DHT22;55850;51.244;6.824;2022-10-16T22:08:47;16.69;87.42
68844;DHT22;55850;51.244;6.824;2022-10-16T22:13:54;16.64;87.79
68844;DHT22;55850;51.244;6.824;2022-10-16T22:19:00;16.67;87.70
68844;DHT22;55850;51.244;6.824;2022-10-16T22:24:12;16.57;88.26
68844;DHT22;55850;51.244;6.824;2022-10-16T22:29:17;16.50;88.63
68844;DHT22;55850;51.244;6.824;2022-10-16T22:34:23;16.50;88.82
68844;DHT22;55850;51.244;6.824;2022-10-16T22:39:32;16.50;88.90
68844;DHT22;55850;51.244;6.824;2022-10-16T22:44:38;16.49;89.04
68844;DHT22;55850;51.244;6.824;2022-10-16T22:49:44;16.43;89.01
68844;DHT22;55850;51.244;6.824;2022-10-16T22:54:53;16.50;88.90
68844;DHT22;55850;51.244;6.824;2022-10-16T22:59:58;16.43;89.22
68844;DHT22;55850;51.244;6.824;2022-10-16T23:05:06;16.46;89.10
68844;DHT22;55850;51.244;6.824;2022-10-16T23:10:14;16.48;89.10
68844;DHT22;55850;51.244;6.824;2022-10-16T23:15:20;16.38;89.28
68844;DHT22;55850;51.244;6.824;2022-10-16T23:20:26;16.33;89.47
68844;DHT22;55850;51.244;6.824;2022-10-16T23:25:34;16.34;89.34
68844;DHT22;55850;51.244;6.824;2022-10-16T23:30:40;16.39;89.33
68844;DHT22;55850;51.244;6.824;2022-10-16T23:35:46;16.29;89.59
68844;DHT22;55850;51.244;6.824;2022-10-16T23:40:54;16.25;89.72
68844;DHT22;55850;51.244;6.824;2022-10-16T23:45:59;16.26;89.70
68844;DHT22;55850;51.244;6.824;2022-10-16T23:51:05;16.26;89.76
68844;DHT22;55850;51.244;6.824;2022-10-16T23:56:14;16.34;89.51
